createdAt,value
2018-08-23T00:04:56.382Z,26
2018-08-23T00:09:54.513Z,25.9
2018-08-23T00:14:52.629Z,25.9
2018-08-23T00:19:50.847Z,25.8
2018-08-23T00:24:48.488Z,25.8
2018-08-23T00:29:46.525Z,25.7
2018-08-23T00:34:44.562Z,25.7
2018-08-23T00:39:42.819Z,25.6
2018-08-23T00:44:40.799Z,25.6
2018-08-23T00:49:39.024Z,25.5
2018-08-23T00:54:37.034Z,25.5
2018-08-23T00:59:35.135Z,25.4
2018-08-23T01:04:33.212Z,25.4
2018-08-23T01:09:31.324Z,25.3
2018-08-23T01:14:29.299Z,25.3
2018-08-23T01:19:27.236Z,25.2
2018-08-23T01:24:25.312Z,25.2
2018-08-23T01:29:23.380Z,25.1
2018-08-23T01:34:21.658Z,25.1
2018-08-23T01:39:19.634Z,25
2018-08-23T01:44:17.857Z,25
2018-08-23T01:49:15.999Z,25
2018-08-23T01:54:13.959Z,24.9
2018-08-23T01:59:11.952Z,24.9
2018-08-23T02:04:10.057Z,24.8
2018-08-23T02:09:08.251Z,24.8
2018-08-23T02:14:06.235Z,24.7
2018-08-23T02:19:04.292Z,24.7
2018-08-23T02:24:02.420Z,24.6
2018-08-23T02:29:00.620Z,24.6
2018-08-23T02:33:58.712Z,24.6
2018-08-23T02:38:56.739Z,24.5
2018-08-23T02:43:55.002Z,24.3
2018-08-23T02:48:52.949Z,24.5
2018-08-23T02:53:51.121Z,24.4
2018-08-23T02:58:49.403Z,24.4
2018-08-23T03:03:47.133Z,24.3
2018-08-23T03:08:45.192Z,24.3
2018-08-23T03:13:43.269Z,24.3
2018-08-23T03:18:41.322Z,24.2
2018-08-23T03:23:39.417Z,24.2
2018-08-23T03:28:37.483Z,24.2
2018-08-23T03:33:35.689Z,24.1
2018-08-23T03:38:33.185Z,24.1
2018-08-23T03:43:31.251Z,24.1
2018-08-23T03:48:29.207Z,24
2018-08-23T03:53:27.110Z,24
2018-08-23T03:58:25.397Z,24
2018-08-23T04:03:23.489Z,23.9
2018-08-23T04:08:21.497Z,23.9
2018-08-23T04:13:19.592Z,23.9
2018-08-23T04:18:17.611Z,23.9
2018-08-23T04:23:15.883Z,23.9
2018-08-23T04:28:14.050Z,23.9
2018-08-23T04:33:12.234Z,23.9
2018-08-23T04:38:10.516Z,23.9
2018-08-23T04:43:08.919Z,23.9
2018-08-23T04:48:06.950Z,23.9
2018-08-23T04:53:05.064Z,23.9
2018-08-23T04:58:03.125Z,23.9
2018-08-23T05:03:01.278Z,23.9
2018-08-23T05:07:59.359Z,23.9
2018-08-23T05:12:57.536Z,23.8
2018-08-23T05:17:55.717Z,23.4
2018-08-23T05:22:53.853Z,23.8
2018-08-23T05:27:52.108Z,23.8
2018-08-23T05:32:50.253Z,23.8
2018-08-23T05:37:48.368Z,23.8
2018-08-23T05:42:46.473Z,23.8
2018-08-23T05:47:44.511Z,23.8
2018-08-23T05:52:42.735Z,23.8
2018-08-23T05:57:40.847Z,23.8
2018-08-23T06:02:39.168Z,23.8
2018-08-23T06:07:37.048Z,23.8
2018-08-23T06:12:35.269Z,23.8
2018-08-23T06:17:33.465Z,23.8
2018-08-23T06:22:31.051Z,23.8
2018-08-23T06:27:29.282Z,23.8
2018-08-23T06:32:27.353Z,23.8
2018-08-23T06:37:25.585Z,23.8
2018-08-23T06:42:23.784Z,23.9
2018-08-23T06:47:21.806Z,23.9
2018-08-23T06:52:20.030Z,23.9
2018-08-23T06:57:18.144Z,23.9
2018-08-23T07:02:16.225Z,23.9
2018-08-23T07:07:14.383Z,24
2018-08-23T07:12:12.567Z,24
2018-08-23T07:17:10.753Z,24
2018-08-23T07:22:08.500Z,24.1
2018-08-23T07:27:06.584Z,24.1
2018-08-23T07:32:04.841Z,24.1
2018-08-23T07:37:03.043Z,24.2
2018-08-23T07:42:01.399Z,24.2
2018-08-23T07:46:59.865Z,24.3
2018-08-23T07:51:57.950Z,24.3
2018-08-23T07:56:56.161Z,24.4
2018-08-23T08:01:54.703Z,23.9
2018-08-23T08:06:52.879Z,24.5
2018-08-23T08:11:51.373Z,24.5
2018-08-23T08:16:49.583Z,24.6
2018-08-23T08:21:47.295Z,24.6
2018-08-23T08:26:45.505Z,24.7
2018-08-23T08:31:43.876Z,24.7
2018-08-23T08:36:42.375Z,24.8
2018-08-23T08:41:40.734Z,24.8
2018-08-23T08:46:39.044Z,24.9
2018-08-23T08:51:37.143Z,24.9
2018-08-23T08:56:35.597Z,25
2018-08-23T09:01:34.055Z,25
2018-08-23T09:06:32.732Z,25
2018-08-23T09:11:31.122Z,25.1
2018-08-23T09:16:29.050Z,25.1
2018-08-23T09:21:27.332Z,25.2
2018-08-23T09:26:25.613Z,25.2
2018-08-23T09:31:23.959Z,25.3
2018-08-23T09:36:21.934Z,25.3
2018-08-23T09:41:20.091Z,25.4
2018-08-23T09:46:18.310Z,25.4
2018-08-23T09:51:16.876Z,25.4
2018-08-23T09:56:15.497Z,25.5
2018-08-23T10:01:13.968Z,25.4
2018-08-23T10:06:12.124Z,25.6
2018-08-23T10:11:10.288Z,25.6
2018-08-23T10:16:08.658Z,25.7
2018-08-23T10:21:06.821Z,25.7
2018-08-23T10:26:05.115Z,25.8
2018-08-23T10:31:03.163Z,25.8
2018-08-23T10:36:01.531Z,25.9
2018-08-23T10:40:59.787Z,25.9
2018-08-23T10:45:58.099Z,26
2018-08-23T10:50:56.209Z,26
2018-08-23T10:55:54.603Z,26.1
2018-08-23T11:00:52.608Z,26.1
2018-08-23T11:05:50.786Z,26.2
2018-08-23T11:10:48.801Z,26.2
2018-08-23T11:15:47.071Z,26.3
2018-08-23T11:20:45.303Z,26.3
2018-08-23T11:25:43.498Z,26.4
2018-08-23T11:30:41.778Z,26.4
2018-08-23T11:35:40.104Z,26.5
2018-08-23T11:40:38.472Z,26.5
2018-08-23T11:45:36.954Z,26.6
2018-08-23T11:50:35.077Z,26.6
2018-08-23T11:55:33.315Z,26.7
2018-08-23T12:00:31.581Z,26.7
2018-08-23T12:05:29.836Z,26.8
2018-08-23T12:10:27.923Z,26.8
2018-08-23T12:15:26.254Z,26.9
2018-08-23T12:20:24.611Z,27
2018-08-23T12:25:22.998Z,26.6
2018-08-23T12:30:21.378Z,27
2018-08-23T12:35:19.724Z,27.1
2018-08-23T12:40:18.093Z,27.2
2018-08-23T12:45:16.628Z,27.2
2018-08-23T12:50:14.881Z,27.3
2018-08-23T12:55:13.193Z,27.3
2018-08-23T13:00:11.725Z,27.4
2018-08-23T13:05:10.110Z,27.4
2018-08-23T13:10:08.467Z,27.5
2018-08-23T13:15:06.782Z,27.5
2018-08-23T13:20:04.993Z,27.6
2018-08-23T13:25:03.161Z,27.6
2018-08-23T13:30:01.766Z,27.7
2018-08-23T13:35:00.168Z,27.7
2018-08-23T13:39:58.545Z,27.8
2018-08-23T13:44:57.022Z,27.8
2018-08-23T13:49:55.433Z,27.4
2018-08-23T13:54:53.655Z,27.9
2018-08-23T13:59:51.827Z,27.9
2018-08-23T14:04:50.192Z,28
2018-08-23T14:09:48.360Z,28
2018-08-23T14:14:46.673Z,28.1
2018-08-23T14:19:45.048Z,28.1
2018-08-23T14:24:43.159Z,28.1
2018-08-23T14:29:41.573Z,28.2
2018-08-23T14:34:39.456Z,28.2
2018-08-23T14:39:37.548Z,28.3
2018-08-23T14:44:35.805Z,28.3
2018-08-23T14:49:34.172Z,28.3
2018-08-23T14:54:32.402Z,28.4
2018-08-23T14:59:30.590Z,28.4
2018-08-23T15:04:28.971Z,28.5
2018-08-23T15:09:26.816Z,28.5
2018-08-23T15:14:25.271Z,28.5
2018-08-23T15:19:23.504Z,28.4
2018-08-23T15:24:21.593Z,28.6
2018-08-23T15:29:20.080Z,28.6
2018-08-23T15:34:18.348Z,28.6
2018-08-23T15:39:16.413Z,28.6
2018-08-23T15:44:14.787Z,28.7
2018-08-23T15:49:12.993Z,28.7
2018-08-23T15:54:11.316Z,28.7
2018-08-23T15:59:09.692Z,28.7
2018-08-23T16:04:07.815Z,28.7
2018-08-23T16:09:05.625Z,28.7
2018-08-23T16:14:03.610Z,28.7
2018-08-23T16:19:01.934Z,28.7
2018-08-23T16:24:00.196Z,28.7
2018-08-23T16:28:58.299Z,28.7
2018-08-23T16:33:56.442Z,28.7
2018-08-23T16:38:54.544Z,28.7
2018-08-23T16:43:52.632Z,28.7
2018-08-23T16:48:51.060Z,28.7
2018-08-23T16:53:49.426Z,28.7
2018-08-23T16:58:47.722Z,28.7
2018-08-23T17:03:46.039Z,28.7
2018-08-23T17:08:44.361Z,28.7
2018-08-23T17:13:42.610Z,28.7
2018-08-23T17:18:41.001Z,28.7
2018-08-23T17:23:39.490Z,28.7
2018-08-23T17:28:37.560Z,28.7
2018-08-23T17:33:35.922Z,28.6
2018-08-23T17:38:34.157Z,28.6
2018-08-23T17:43:32.347Z,28.6
2018-08-23T17:48:30.737Z,28.5
2018-08-23T17:53:29.305Z,28.5
2018-08-23T17:58:27.671Z,28.5
2018-08-23T18:03:25.982Z,28.5
2018-08-23T18:08:24.188Z,28.3
2018-08-23T18:13:22.507Z,28.4
2018-08-23T18:18:20.614Z,28.4
2018-08-23T18:23:18.904Z,28.3
2018-08-23T18:28:17.232Z,27.9
2018-08-23T18:33:15.833Z,28.3
2018-08-23T18:38:14.236Z,28.2
2018-08-23T18:43:12.545Z,28.2
2018-08-23T18:48:10.910Z,28.1
2018-08-23T18:53:09.134Z,28.1
2018-08-23T18:58:07.559Z,28.1
2018-08-23T19:03:05.872Z,28
2018-08-23T19:08:04.068Z,28
2018-08-23T19:13:02.523Z,28
2018-08-23T19:18:00.861Z,27.9
2018-08-23T19:22:59.046Z,27.9
2018-08-23T19:27:56.881Z,27.8
2018-08-23T19:32:55.206Z,27.8
2018-08-23T19:37:53.552Z,27.8
2018-08-23T19:42:51.916Z,27.7
2018-08-23T19:47:50.078Z,27.7
2018-08-23T19:52:48.342Z,27.7
2018-08-23T19:57:46.563Z,27.6
2018-08-23T20:02:44.716Z,27.6
2018-08-23T20:07:42.991Z,27.5
2018-08-23T20:12:40.858Z,27.5
2018-08-23T20:17:39.007Z,27.5
2018-08-23T20:22:37.136Z,27.4
2018-08-23T20:27:35.517Z,27.4
2018-08-23T20:32:33.575Z,27.4
2018-08-23T20:37:31.784Z,27.3
2018-08-23T20:42:30.068Z,27.3
2018-08-23T20:47:28.436Z,27.2
2018-08-23T20:52:26.646Z,27.2
2018-08-23T20:57:24.937Z,27.2
2018-08-23T21:02:23.313Z,27.1
2018-08-23T21:07:21.503Z,27.1
2018-08-23T21:12:19.678Z,27
2018-08-23T21:17:17.894Z,27
2018-08-23T21:22:16.171Z,26.5
2018-08-23T21:27:14.303Z,26.9
2018-08-23T21:32:12.693Z,26.9
2018-08-23T21:37:10.787Z,26.9
2018-08-23T21:42:08.943Z,26.8
2018-08-23T21:47:07.294Z,26.8
2018-08-23T21:52:05.394Z,26.8
2018-08-23T21:57:03.757Z,26.7
2018-08-23T22:02:02.122Z,26.7
2018-08-23T22:07:00.261Z,26.2
2018-08-23T22:11:58.444Z,26.6
2018-08-23T22:16:56.678Z,26.6
2018-08-23T22:21:54.401Z,26.5
2018-08-23T22:26:52.596Z,26.5
2018-08-23T22:31:50.891Z,26.5
2018-08-23T22:36:49.248Z,26.4
2018-08-23T22:41:47.463Z,26.4
2018-08-23T22:46:45.644Z,26.3
2018-08-23T22:51:43.778Z,26.3
2018-08-23T22:56:42.042Z,26.3
2018-08-23T23:01:40.329Z,26.2
2018-08-23T23:06:38.510Z,26.2
2018-08-23T23:11:36.817Z,26.1
2018-08-23T23:16:35.224Z,26.1
2018-08-23T23:21:33.456Z,26
2018-08-23T23:26:31.794Z,26
2018-08-23T23:31:29.951Z,26
2018-08-23T23:36:28.169Z,25.9
2018-08-23T23:41:26.583Z,25.9
2018-08-23T23:46:24.672Z,25.9
2018-08-23T23:51:22.992Z,25.8
2018-08-23T23:56:20.983Z,25.8
